Flight Track Log - Related Links

Times and Time Zones

All times are in EDT time to prevent confusion due to time zone crossing. See the FLG3800 flight status page for this flight to view local times or setup timezone preferences in your user account.

Time Position Orientation Groundspeed Altitude Reporting Facility
EDT Latitude Longitude Course Direction KTS MPH feet Rate Location/Type
Mon 08:05:10 AM 42.2092 -85.5400 106° East 123 142 2,500  Level Chicago Center
Mon 08:06:12 AM 42.1786 -85.4772 123° Southeast 197 227 4,800 2,323 Climbing Chicago Center
Mon 08:07:14 AM 42.1672 -85.3831 99° East 250 288 7,300 2,537 Climbing Chicago Center
Mon 08:08:00 AM 42.1582 -85.2105 106° East  Level FlightAware Approximate
Mon 08:08:15 AM 42.1469 -85.2739 104° East 272 313 10,000  Level Chicago Center
Mon 08:09:00 AM 42.1399 -85.1246 106° East  Level FlightAware Approximate
Mon 08:09:17 AM 42.1275 -85.1544 102° East 313 360 10,000  Level Chicago Center
Mon 08:10:00 AM 42.1214 -85.0387 106° East  Level FlightAware Approximate
Mon 08:10:19 AM 42.1069 -85.0269 102° East 340 391 10,800  Level Chicago Center
Mon 08:11:21 AM 42.0767 -84.8994 108° East 354 407 11,000 581 Climbing Chicago Center
Mon 08:12:23 AM 42.0300 -84.7431 112° Southeast 374 430 12,000 484 Climbing Chicago Center
Mon 08:13:25 AM 41.9914 -84.6067 111° Southeast 374 430 12,000 48 Level Cleveland Center
Mon 08:14:28 AM 41.9483 -84.4697 113° Southeast 378 435 12,100 60 Climbing Cleveland Center
Mon 08:15:05 AM 41.9261 -84.3875 110° East 375 432 12,100  Level Cleveland Center
Mon 08:15:25 AM 41.9169 -84.3450 106° East 379 436 12,100  Level Cleveland Center
Mon 08:16:12 AM 41.8867 -84.2483 113° Southeast 372 428 12,100  Level Cleveland Center
Mon 08:17:25 AM 41.8414 -84.1008 112° Southeast 379 436 12,100  Level Cleveland Center
Mon 08:18:20 AM 41.8661 -83.9711 76° East 375 432 12,100  Level Cleveland Center
Mon 08:19:21 AM 41.9378 -83.8689 47° Northeast 378 435 12,100  Level Cleveland Center
Mon 08:20:21 AM 42.0178 -83.7694 43° Northeast 377 434 12,100  Level Cleveland Center
Mon 08:21:22 AM 42.0978 -83.6700 43° Northeast 378 435 12,100  Level Cleveland Center
Mon 08:22:17 AM 42.1708 -83.5867 40° Northeast 379 436 12,100 -207 Level Cleveland Center
Mon 08:23:18 AM 42.2372 -83.5142 39° Northeast 271 312 11,700 -1,086 Descending Cleveland Center
Mon 08:24:13 AM 42.2947 -83.4717 29° Northeast 245 282 10,000 -1,914 Descending Cleveland Center
Mon 08:25:14 AM 42.3519 -83.4294 29° Northeast 228 262 8,000 -2,016 Descending Cleveland Center
Mon 08:26:21 AM 42.4175 -83.3903 24° Northeast 218 251 5,700 -1,828 Descending Cleveland Center
Mon 08:27:22 AM 42.4111 -83.3139 96° East 216 249 4,100 -1,180 Descending Cleveland Center
Mon 08:28:23 AM 42.3636 -83.2978 166° South 176 203 3,300 -787 Descending Cleveland Center
Mon 08:29:24 AM 42.3175 -83.2986 181° South 167 192 2,500 -787 Descending Cleveland Center

Login

Don't have an account? Register now (free) for customized features, flight alerts, and more!